sensor_id;sensor_type;location;lat;lon;timestamp;P1;durP1;ratioP1;P2;durP2;ratioP2
78072;SDS011;67281;48.770;11.440;2023-03-23T00:01:30;11.77;;;5.80;;
78072;SDS011;67281;48.770;11.440;2023-03-23T00:04:03;8.80;;;5.97;;
78072;SDS011;67281;48.770;11.440;2023-03-23T00:06:30;11.80;;;6.87;;
78072;SDS011;67281;48.770;11.440;2023-03-23T00:09:01;9.80;;;6.07;;
78072;SDS011;67281;48.770;11.440;2023-03-23T00:11:30;12.57;;;7.17;;
78072;SDS011;67281;48.770;11.440;2023-03-23T00:13:58;8.90;;;5.83;;
78072;SDS011;67281;48.770;11.440;2023-03-23T00:16:30;7.27;;;5.53;;
78072;SDS011;67281;48.770;11.440;2023-03-23T00:19:00;6.60;;;5.40;;
78072;SDS011;67281;48.770;11.440;2023-03-23T00:21:30;11.27;;;5.77;;
78072;SDS011;67281;48.770;11.440;2023-03-23T00:24:03;8.17;;;6.00;;
78072;SDS011;67281;48.770;11.440;2023-03-23T00:26:31;8.33;;;5.63;;
78072;SDS011;67281;48.770;11.440;2023-03-23T00:29:20;7.40;;;5.90;;
78072;SDS011;67281;48.770;11.440;2023-03-23T00:31:49;9.60;;;5.70;;
78072;SDS011;67281;48.770;11.440;2023-03-23T00:34:20;7.73;;;5.77;;
78072;SDS011;67281;48.770;11.440;2023-03-23T00:36:48;10.00;;;5.50;;
78072;SDS011;67281;48.770;11.440;2023-03-23T00:39:17;8.37;;;5.37;;
78072;SDS011;67281;48.770;11.440;2023-03-23T00:41:44;9.33;;;5.30;;
78072;SDS011;67281;48.770;11.440;2023-03-23T00:44:13;9.10;;;5.70;;
78072;SDS011;67281;48.770;11.440;2023-03-23T00:46:48;8.57;;;5.83;;
78072;SDS011;67281;48.770;11.440;2023-03-23T00:49:17;6.73;;;5.43;;
78072;SDS011;67281;48.770;11.440;2023-03-23T00:51:46;7.63;;;6.00;;
78072;SDS011;67281;48.770;11.440;2023-03-23T00:54:13;8.23;;;5.40;;
78072;SDS011;67281;48.770;11.440;2023-03-23T00:56:40;11.23;;;6.23;;
78072;SDS011;67281;48.770;11.440;2023-03-23T00:59:07;12.27;;;6.53;;
78072;SDS011;67281;48.770;11.440;2023-03-23T01:01:35;9.07;;;5.70;;
78072;SDS011;67281;48.770;11.440;2023-03-23T01:04:02;9.70;;;6.40;;
78072;SDS011;67281;48.770;11.440;2023-03-23T01:06:31;11.77;;;6.10;;
78072;SDS011;67281;48.770;11.440;2023-03-23T01:09:02;8.17;;;6.50;;
78072;SDS011;67281;48.770;11.440;2023-03-23T01:11:29;6.20;;;5.60;;
78072;SDS011;67281;48.770;11.440;2023-03-23T01:13:56;8.70;;;6.50;;
78072;SDS011;67281;48.770;11.440;2023-03-23T01:16:23;9.63;;;6.20;;
78072;SDS011;67281;48.770;11.440;2023-03-23T01:18:51;8.90;;;6.63;;
78072;SDS011;67281;48.770;11.440;2023-03-23T01:21:19;7.70;;;5.97;;
78072;SDS011;67281;48.770;11.440;2023-03-23T01:23:47;11.10;;;6.87;;
78072;SDS011;67281;48.770;11.440;2023-03-23T01:26:15;9.17;;;6.57;;
78072;SDS011;67281;48.770;11.440;2023-03-23T01:28:46;9.87;;;6.00;;
78072;SDS011;67281;48.770;11.440;2023-03-23T01:31:15;9.60;;;6.37;;
78072;SDS011;67281;48.770;11.440;2023-03-23T01:33:43;9.57;;;6.17;;
78072;SDS011;67281;48.770;11.440;2023-03-23T01:36:15;9.93;;;6.03;;
78072;SDS011;67281;48.770;11.440;2023-03-23T01:38:47;7.60;;;6.13;;
78072;SDS011;67281;48.770;11.440;2023-03-23T01:41:16;13.20;;;7.53;;
78072;SDS011;67281;48.770;11.440;2023-03-23T01:46:20;12.73;;;6.33;;
78072;SDS011;67281;48.770;11.440;2023-03-23T01:48:49;9.40;;;6.00;;
78072;SDS011;67281;48.770;11.440;2023-03-23T01:51:17;12.70;;;6.50;;
78072;SDS011;67281;48.770;11.440;2023-03-23T01:53:49;8.93;;;5.73;;
78072;SDS011;67281;48.770;11.440;2023-03-23T01:56:20;8.37;;;6.10;;
78072;SDS011;67281;48.770;11.440;2023-03-23T01:58:52;6.87;;;5.67;;
78072;SDS011;67281;48.770;11.440;2023-03-23T02:01:22;7.93;;;5.23;;
78072;SDS011;67281;48.770;11.440;2023-03-23T02:03:52;5.77;;;5.20;;
78072;SDS011;67281;48.770;11.440;2023-03-23T02:06:21;8.30;;;5.40;;
78072;SDS011;67281;48.770;11.440;2023-03-23T02:08:48;5.57;;;4.83;;
78072;SDS011;67281;48.770;11.440;2023-03-23T02:11:18;7.00;;;5.07;;
78072;SDS011;67281;48.770;11.440;2023-03-23T02:13:47;8.33;;;5.47;;
78072;SDS011;67281;48.770;11.440;2023-03-23T02:24:14;7.43;;;4.80;;
78072;SDS011;67281;48.770;11.440;2023-03-23T02:26:58;5.53;;;4.70;;
78072;SDS011;67281;48.770;11.440;2023-03-23T02:34:57;5.13;;;4.60;;
78072;SDS011;67281;48.770;11.440;2023-03-23T02:37:31;7.43;;;5.23;;
78072;SDS011;67281;48.770;11.440;2023-03-23T02:40:07;7.97;;;5.17;;
78072;SDS011;67281;48.770;11.440;2023-03-23T02:42:42;7.07;;;5.10;;
78072;SDS011;67281;48.770;11.440;2023-03-23T02:45:12;7.70;;;5.27;;
78072;SDS011;67281;48.770;11.440;2023-03-23T02:47:42;8.13;;;5.20;;
78072;SDS011;67281;48.770;11.440;2023-03-23T02:50:11;6.47;;;4.93;;
78072;SDS011;67281;48.770;11.440;2023-03-23T02:52:41;5.70;;;5.10;;
78072;SDS011;67281;48.770;11.440;2023-03-23T02:55:11;6.07;;;5.07;;
78072;SDS011;67281;48.770;11.440;2023-03-23T02:57:40;5.87;;;5.27;;
78072;SDS011;67281;48.770;11.440;2023-03-23T03:00:10;9.33;;;5.90;;
78072;SDS011;67281;48.770;11.440;2023-03-23T03:02:41;6.53;;;5.33;;
78072;SDS011;67281;48.770;11.440;2023-03-23T03:08:18;9.10;;;5.40;;
78072;SDS011;67281;48.770;11.440;2023-03-23T03:11:09;6.83;;;5.00;;
78072;SDS011;67281;48.770;11.440;2023-03-23T03:13:46;5.80;;;4.83;;
78072;SDS011;67281;48.770;11.440;2023-03-23T03:19:08;6.43;;;5.20;;
78072;SDS011;67281;48.770;11.440;2023-03-23T03:21:44;6.23;;;5.10;;
78072;SDS011;67281;48.770;11.440;2023-03-23T03:24:14;6.87;;;5.23;;
78072;SDS011;67281;48.770;11.440;2023-03-23T03:26:45;7.43;;;4.70;;
78072;SDS011;67281;48.770;11.440;2023-03-23T03:29:18;8.97;;;5.17;;
78072;SDS011;67281;48.770;11.440;2023-03-23T03:31:47;5.77;;;5.17;;
78072;SDS011;67281;48.770;11.440;2023-03-23T03:34:17;8.70;;;5.00;;
78072;SDS011;67281;48.770;11.440;2023-03-23T03:36:45;9.60;;;5.67;;
78072;SDS011;67281;48.770;11.440;2023-03-23T03:39:13;6.73;;;5.10;;
78072;SDS011;67281;48.770;11.440;2023-03-23T03:41:43;6.87;;;4.80;;
78072;SDS011;67281;48.770;11.440;2023-03-23T03:44:11;7.10;;;5.10;;
78072;SDS011;67281;48.770;11.440;2023-03-23T03:46:38;6.77;;;5.40;;
78072;SDS011;67281;48.770;11.440;2023-03-23T03:49:05;10.30;;;5.30;;
78072;SDS011;67281;48.770;11.440;2023-03-23T03:51:34;6.23;;;5.30;;
78072;SDS011;67281;48.770;11.440;2023-03-23T03:54:02;6.23;;;5.20;;
78072;SDS011;67281;48.770;11.440;2023-03-23T03:56:29;8.87;;;5.63;;
78072;SDS011;67281;48.770;11.440;2023-03-23T03:58:57;9.90;;;5.67;;
78072;SDS011;67281;48.770;11.440;2023-03-23T04:01:45;6.27;;;5.20;;
78072;SDS011;67281;48.770;11.440;2023-03-23T04:04:13;8.63;;;5.43;;
78072;SDS011;67281;48.770;11.440;2023-03-23T04:06:39;8.83;;;6.73;;
78072;SDS011;67281;48.770;11.440;2023-03-23T04:09:06;10.80;;;7.00;;
78072;SDS011;67281;48.770;11.440;2023-03-23T04:11:34;8.60;;;5.47;;
78072;SDS011;67281;48.770;11.440;2023-03-23T04:14:01;8.47;;;6.23;;
78072;SDS011;67281;48.770;11.440;2023-03-23T04:16:28;8.40;;;6.07;;
78072;SDS011;67281;48.770;11.440;2023-03-23T04:18:56;7.57;;;6.23;;
78072;SDS011;67281;48.770;11.440;2023-03-23T04:21:23;7.67;;;6.30;;
78072;SDS011;67281;48.770;11.440;2023-03-23T04:23:49;10.33;;;6.93;;
78072;SDS011;67281;48.770;11.440;2023-03-23T04:26:16;10.43;;;7.37;;
78072;SDS011;67281;48.770;11.440;2023-03-23T04:28:45;9.67;;;6.80;;
78072;SDS011;67281;48.770;11.440;2023-03-23T04:31:11;8.67;;;6.57;;
78072;SDS011;67281;48.770;11.440;2023-03-23T04:33:39;7.17;;;6.13;;
78072;SDS011;67281;48.770;11.440;2023-03-23T04:36:25;8.87;;;7.43;;
78072;SDS011;67281;48.770;11.440;2023-03-23T04:39:12;9.27;;;6.30;;
78072;SDS011;67281;48.770;11.440;2023-03-23T04:41:39;8.20;;;6.40;;
78072;SDS011;67281;48.770;11.440;2023-03-23T04:44:06;8.57;;;6.50;;
78072;SDS011;67281;48.770;11.440;2023-03-23T04:46:33;10.80;;;6.37;;
78072;SDS011;67281;48.770;11.440;2023-03-23T04:49:00;9.63;;;6.40;;
78072;SDS011;67281;48.770;11.440;2023-03-23T04:51:28;8.83;;;7.67;;
78072;SDS011;67281;48.770;11.440;2023-03-23T04:53:57;10.10;;;6.40;;
78072;SDS011;67281;48.770;11.440;2023-03-23T04:56:24;8.40;;;5.83;;
78072;SDS011;67281;48.770;11.440;2023-03-23T04:58:51;9.07;;;6.17;;
78072;SDS011;67281;48.770;11.440;2023-03-23T05:01:17;11.53;;;6.83;;
78072;SDS011;67281;48.770;11.440;2023-03-23T05:03:44;8.87;;;6.20;;
78072;SDS011;67281;48.770;11.440;2023-03-23T05:06:11;9.37;;;6.70;;
78072;SDS011;67281;48.770;11.440;2023-03-23T05:08:38;7.03;;;6.30;;
78072;SDS011;67281;48.770;11.440;2023-03-23T05:11:05;7.17;;;6.47;;
78072;SDS011;67281;48.770;11.440;2023-03-23T05:13:32;8.73;;;6.57;;
78072;SDS011;67281;48.770;11.440;2023-03-23T05:16:02;8.67;;;6.33;;
78072;SDS011;67281;48.770;11.440;2023-03-23T05:18:31;7.00;;;6.10;;
78072;SDS011;67281;48.770;11.440;2023-03-23T05:20:59;8.27;;;6.77;;
78072;SDS011;67281;48.770;11.440;2023-03-23T05:23:27;8.30;;;6.40;;
78072;SDS011;67281;48.770;11.440;2023-03-23T05:25:57;7.03;;;6.33;;
78072;SDS011;67281;48.770;11.440;2023-03-23T05:28:27;7.57;;;5.80;;
78072;SDS011;67281;48.770;11.440;2023-03-23T05:30:55;13.57;;;6.33;;
78072;SDS011;67281;48.770;11.440;2023-03-23T05:33:22;7.03;;;5.97;;
78072;SDS011;67281;48.770;11.440;2023-03-23T05:35:49;9.53;;;6.03;;
78072;SDS011;67281;48.770;11.440;2023-03-23T05:38:15;7.60;;;6.00;;
78072;SDS011;67281;48.770;11.440;2023-03-23T05:40:42;6.93;;;5.70;;
78072;SDS011;67281;48.770;11.440;2023-03-23T05:43:09;12.10;;;5.90;;
78072;SDS011;67281;48.770;11.440;2023-03-23T05:45:37;13.87;;;7.50;;
78072;SDS011;67281;48.770;11.440;2023-03-23T05:48:04;12.00;;;6.50;;
78072;SDS011;67281;48.770;11.440;2023-03-23T05:50:30;10.10;;;6.13;;
78072;SDS011;67281;48.770;11.440;2023-03-23T05:52:57;11.93;;;5.90;;
78072;SDS011;67281;48.770;11.440;2023-03-23T05:55:24;8.20;;;6.03;;
78072;SDS011;67281;48.770;11.440;2023-03-23T05:57:51;11.60;;;6.13;;
78072;SDS011;67281;48.770;11.440;2023-03-23T06:00:18;7.67;;;6.10;;
78072;SDS011;67281;48.770;11.440;2023-03-23T06:02:47;12.33;;;6.17;;
78072;SDS011;67281;48.770;11.440;2023-03-23T06:05:14;8.60;;;6.10;;
78072;SDS011;67281;48.770;11.440;2023-03-23T06:07:42;9.07;;;5.63;;
78072;SDS011;67281;48.770;11.440;2023-03-23T06:10:09;10.30;;;5.50;;
78072;SDS011;67281;48.770;11.440;2023-03-23T06:12:37;8.23;;;5.87;;
78072;SDS011;67281;48.770;11.440;2023-03-23T06:15:06;9.07;;;6.20;;
78072;SDS011;67281;48.770;11.440;2023-03-23T06:17:34;11.83;;;5.80;;
78072;SDS011;67281;48.770;11.440;2023-03-23T06:20:03;11.00;;;5.50;;
78072;SDS011;67281;48.770;11.440;2023-03-23T06:22:38;17.50;;;7.10;;
78072;SDS011;67281;48.770;11.440;2023-03-23T06:25:06;9.27;;;5.60;;
78072;SDS011;67281;48.770;11.440;2023-03-23T06:27:33;8.80;;;5.63;;
78072;SDS011;67281;48.770;11.440;2023-03-23T06:30:01;10.70;;;5.90;;
78072;SDS011;67281;48.770;11.440;2023-03-23T06:32:29;16.33;;;6.23;;
78072;SDS011;67281;48.770;11.440;2023-03-23T06:34:58;15.40;;;6.17;;
78072;SDS011;67281;48.770;11.440;2023-03-23T06:37:24;10.23;;;6.47;;
78072;SDS011;67281;48.770;11.440;2023-03-23T06:39:51;16.17;;;6.13;;
78072;SDS011;67281;48.770;11.440;2023-03-23T06:42:18;11.83;;;6.40;;
78072;SDS011;67281;48.770;11.440;2023-03-23T06:44:45;10.73;;;6.33;;
78072;SDS011;67281;48.770;11.440;2023-03-23T06:47:12;19.50;;;6.47;;
78072;SDS011;67281;48.770;11.440;2023-03-23T06:49:38;13.37;;;6.67;;
78072;SDS011;67281;48.770;11.440;2023-03-23T06:52:05;12.97;;;7.40;;
78072;SDS011;67281;48.770;11.440;2023-03-23T06:54:33;16.77;;;6.93;;
78072;SDS011;67281;48.770;11.440;2023-03-23T06:56:59;15.20;;;7.47;;
78072;SDS011;67281;48.770;11.440;2023-03-23T06:59:26;20.40;;;9.93;;
78072;SDS011;67281;48.770;11.440;2023-03-23T07:01:53;19.37;;;10.80;;
78072;SDS011;67281;48.770;11.440;2023-03-23T07:04:20;20.33;;;11.27;;
78072;SDS011;67281;48.770;11.440;2023-03-23T07:06:46;26.50;;;11.67;;
78072;SDS011;67281;48.770;11.440;2023-03-23T07:09:13;16.30;;;9.63;;
78072;SDS011;67281;48.770;11.440;2023-03-23T07:11:40;26.60;;;9.40;;
78072;SDS011;67281;48.770;11.440;2023-03-23T07:14:07;17.23;;;7.53;;
78072;SDS011;67281;48.770;11.440;2023-03-23T07:16:34;23.40;;;8.20;;
78072;SDS011;67281;48.770;11.440;2023-03-23T07:19:01;22.83;;;7.13;;
78072;SDS011;67281;48.770;11.440;2023-03-23T07:21:28;12.07;;;6.53;;
78072;SDS011;67281;48.770;11.440;2023-03-23T07:23:54;14.90;;;6.47;;
78072;SDS011;67281;48.770;11.440;2023-03-23T07:26:21;11.60;;;6.83;;
78072;SDS011;67281;48.770;11.440;2023-03-23T07:28:49;11.80;;;7.10;;
78072;SDS011;67281;48.770;11.440;2023-03-23T07:31:16;10.53;;;6.43;;
78072;SDS011;67281;48.770;11.440;2023-03-23T07:33:43;9.10;;;6.17;;
78072;SDS011;67281;48.770;11.440;2023-03-23T07:36:10;9.73;;;5.90;;
78072;SDS011;67281;48.770;11.440;2023-03-23T07:38:37;10.90;;;6.07;;
78072;SDS011;67281;48.770;11.440;2023-03-23T07:41:05;6.20;;;4.93;;
78072;SDS011;67281;48.770;11.440;2023-03-23T07:43:32;10.80;;;6.33;;
78072;SDS011;67281;48.770;11.440;2023-03-23T07:45:59;9.13;;;6.10;;
78072;SDS011;67281;48.770;11.440;2023-03-23T07:48:26;8.63;;;5.40;;
78072;SDS011;67281;48.770;11.440;2023-03-23T07:50:53;12.13;;;5.90;;
78072;SDS011;67281;48.770;11.440;2023-03-23T07:53:19;10.63;;;5.30;;
78072;SDS011;67281;48.770;11.440;2023-03-23T07:55:48;10.50;;;5.63;;
78072;SDS011;67281;48.770;11.440;2023-03-23T07:58:15;12.93;;;6.10;;
78072;SDS011;67281;48.770;11.440;2023-03-23T08:00:46;8.83;;;5.50;;
78072;SDS011;67281;48.770;11.440;2023-03-23T08:03:15;10.50;;;5.73;;
78072;SDS011;67281;48.770;11.440;2023-03-23T08:05:42;21.30;;;6.07;;
78072;SDS011;67281;48.770;11.440;2023-03-23T08:08:09;11.37;;;5.97;;
78072;SDS011;67281;48.770;11.440;2023-03-23T08:10:36;14.17;;;5.67;;
78072;SDS011;67281;48.770;11.440;2023-03-23T08:13:03;9.67;;;6.00;;
78072;SDS011;67281;48.770;11.440;2023-03-23T08:15:33;14.60;;;5.77;;
78072;SDS011;67281;48.770;11.440;2023-03-23T08:18:03;8.47;;;4.53;;
78072;SDS011;67281;48.770;11.440;2023-03-23T08:20:31;15.53;;;5.00;;
78072;SDS011;67281;48.770;11.440;2023-03-23T08:22:59;12.40;;;5.40;;
78072;SDS011;67281;48.770;11.440;2023-03-23T08:25:26;5.90;;;4.50;;
78072;SDS011;67281;48.770;11.440;2023-03-23T08:27:53;7.07;;;4.87;;
78072;SDS011;67281;48.770;11.440;2023-03-23T08:30:21;8.97;;;4.87;;
78072;SDS011;67281;48.770;11.440;2023-03-23T08:32:52;8.63;;;5.00;;
78072;SDS011;67281;48.770;11.440;2023-03-23T08:35:19;8.90;;;4.67;;
78072;SDS011;67281;48.770;11.440;2023-03-23T08:37:46;6.57;;;4.47;;
78072;SDS011;67281;48.770;11.440;2023-03-23T08:40:18;10.23;;;4.70;;
78072;SDS011;67281;48.770;11.440;2023-03-23T08:42:47;7.37;;;4.33;;
78072;SDS011;67281;48.770;11.440;2023-03-23T08:45:26;5.70;;;4.20;;
78072;SDS011;67281;48.770;11.440;2023-03-23T08:47:54;6.27;;;4.53;;
78072;SDS011;67281;48.770;11.440;2023-03-23T08:50:23;7.67;;;4.10;;
78072;SDS011;67281;48.770;11.440;2023-03-23T08:52:52;12.53;;;5.20;;
78072;SDS011;67281;48.770;11.440;2023-03-23T08:55:20;5.97;;;3.60;;
78072;SDS011;67281;48.770;11.440;2023-03-23T08:57:48;7.23;;;3.73;;
78072;SDS011;67281;48.770;11.440;2023-03-23T09:00:16;5.07;;;3.83;;
78072;SDS011;67281;48.770;11.440;2023-03-23T09:02:46;5.70;;;4.50;;
78072;SDS011;67281;48.770;11.440;2023-03-23T09:05:15;5.47;;;3.70;;
78072;SDS011;67281;48.770;11.440;2023-03-23T09:07:49;7.77;;;3.63;;
78072;SDS011;67281;48.770;11.440;2023-03-23T09:10:20;6.43;;;3.83;;
78072;SDS011;67281;48.770;11.440;2023-03-23T09:12:48;5.67;;;3.67;;
78072;SDS011;67281;48.770;11.440;2023-03-23T09:15:16;4.83;;;3.70;;
78072;SDS011;67281;48.770;11.440;2023-03-23T09:17:55;4.33;;;3.40;;
78072;SDS011;67281;48.770;11.440;2023-03-23T09:20:28;5.67;;;3.07;;
78072;SDS011;67281;48.770;11.440;2023-03-23T09:22:56;5.63;;;2.87;;
78072;SDS011;67281;48.770;11.440;2023-03-23T09:25:25;3.30;;;2.70;;
78072;SDS011;67281;48.770;11.440;2023-03-23T09:27:57;5.27;;;3.10;;
78072;SDS011;67281;48.770;11.440;2023-03-23T09:30:29;4.50;;;3.10;;
78072;SDS011;67281;48.770;11.440;2023-03-23T09:33:18;7.13;;;3.00;;
78072;SDS011;67281;48.770;11.440;2023-03-23T09:35:46;5.20;;;2.80;;
78072;SDS011;67281;48.770;11.440;2023-03-23T09:38:13;4.50;;;3.17;;
78072;SDS011;67281;48.770;11.440;2023-03-23T09:40:47;4.20;;;3.10;;
78072;SDS011;67281;48.770;11.440;2023-03-23T09:45:56;4.03;;;2.90;;
78072;SDS011;67281;48.770;11.440;2023-03-23T09:48:41;3.90;;;3.33;;
78072;SDS011;67281;48.770;11.440;2023-03-23T09:54:01;4.30;;;2.78;;
78072;SDS011;67281;48.770;11.440;2023-03-23T09:56:44;5.33;;;3.00;;
78072;SDS011;67281;48.770;11.440;2023-03-23T09:59:32;3.43;;;2.70;;
78072;SDS011;67281;48.770;11.440;2023-03-23T10:02:13;2.80;;;2.50;;
78072;SDS011;67281;48.770;11.440;2023-03-23T10:04:47;3.33;;;2.80;;
78072;SDS011;67281;48.770;11.440;2023-03-23T10:07:20;6.87;;;2.77;;
78072;SDS011;67281;48.770;11.440;2023-03-23T10:09:51;4.70;;;2.73;;
78072;SDS011;67281;48.770;11.440;2023-03-23T10:15:10;3.83;;;2.60;;
78072;SDS011;67281;48.770;11.440;2023-03-23T10:23:09;6.47;;;2.97;;
78072;SDS011;67281;48.770;11.440;2023-03-23T10:28:57;3.17;;;2.80;;
78072;SDS011;67281;48.770;11.440;2023-03-23T10:31:29;3.37;;;3.07;;
78072;SDS011;67281;48.770;11.440;2023-03-23T10:34:15;3.60;;;2.80;;
78072;SDS011;67281;48.770;11.440;2023-03-23T10:39:38;3.60;;;2.83;;
78072;SDS011;67281;48.770;11.440;2023-03-23T10:42:20;3.47;;;2.93;;
78072;SDS011;67281;48.770;11.440;2023-03-23T10:44:50;4.70;;;2.80;;
78072;SDS011;67281;48.770;11.440;2023-03-23T10:47:18;4.30;;;2.47;;
78072;SDS011;67281;48.770;11.440;2023-03-23T10:49:53;2.80;;;2.30;;
78072;SDS011;67281;48.770;11.440;2023-03-23T10:52:25;3.73;;;2.40;;
78072;SDS011;67281;48.770;11.440;2023-03-23T10:55:15;4.50;;;2.17;;
78072;SDS011;67281;48.770;11.440;2023-03-23T10:57:47;2.70;;;2.13;;
78072;SDS011;67281;48.770;11.440;2023-03-23T11:00:31;2.20;;;2.00;;
78072;SDS011;67281;48.770;11.440;2023-03-23T11:05:36;2.43;;;2.00;;
78072;SDS011;67281;48.770;11.440;2023-03-23T11:08:15;2.30;;;2.03;;
78072;SDS011;67281;48.770;11.440;2023-03-23T11:10:49;2.37;;;2.10;;
78072;SDS011;67281;48.770;11.440;2023-03-23T11:13:23;3.83;;;2.50;;
78072;SDS011;67281;48.770;11.440;2023-03-23T11:15:56;4.00;;;2.20;;
78072;SDS011;67281;48.770;11.440;2023-03-23T11:21:10;2.40;;;2.20;;
78072;SDS011;67281;48.770;11.440;2023-03-23T11:23:48;2.27;;;2.07;;
78072;SDS011;67281;48.770;11.440;2023-03-23T11:26:34;1.83;;;1.73;;
78072;SDS011;67281;48.770;11.440;2023-03-23T11:29:09;3.93;;;1.73;;
78072;SDS011;67281;48.770;11.440;2023-03-23T11:31:44;3.57;;;2.07;;
78072;SDS011;67281;48.770;11.440;2023-03-23T11:36:55;2.10;;;1.90;;
78072;SDS011;67281;48.770;11.440;2023-03-23T11:39:31;2.50;;;1.93;;
78072;SDS011;67281;48.770;11.440;2023-03-23T11:42:01;2.60;;;2.30;;
78072;SDS011;67281;48.770;11.440;2023-03-23T11:44:44;2.83;;;1.77;;
78072;SDS011;67281;48.770;11.440;2023-03-23T11:47:27;2.60;;;2.17;;
78072;SDS011;67281;48.770;11.440;2023-03-23T11:50:21;4.30;;;2.10;;
78072;SDS011;67281;48.770;11.440;2023-03-23T11:53:10;3.60;;;1.90;;
78072;SDS011;67281;48.770;11.440;2023-03-23T11:55:55;5.17;;;2.10;;
78072;SDS011;67281;48.770;11.440;2023-03-23T11:58:32;2.33;;;1.90;;
78072;SDS011;67281;48.770;11.440;2023-03-23T12:01:21;7.47;;;2.20;;
78072;SDS011;67281;48.770;11.440;2023-03-23T12:04:00;2.37;;;2.17;;
78072;SDS011;67281;48.770;11.440;2023-03-23T12:06:58;3.23;;;2.40;;
78072;SDS011;67281;48.770;11.440;2023-03-23T12:15:16;3.40;;;2.53;;
78072;SDS011;67281;48.770;11.440;2023-03-23T12:35:01;3.50;;;2.17;;
78072;SDS011;67281;48.770;11.440;2023-03-23T12:43:38;2.63;;;1.90;;
78072;SDS011;67281;48.770;11.440;2023-03-23T12:46:19;2.90;;;2.57;;
78072;SDS011;67281;48.770;11.440;2023-03-23T12:48:57;3.47;;;2.10;;
78072;SDS011;67281;48.770;11.440;2023-03-23T12:51:39;3.70;;;2.00;;
78072;SDS011;67281;48.770;11.440;2023-03-23T12:54:16;3.53;;;1.97;;
78072;SDS011;67281;48.770;11.440;2023-03-23T12:56:53;2.20;;;1.70;;
78072;SDS011;67281;48.770;11.440;2023-03-23T12:59:28;2.60;;;2.10;;
78072;SDS011;67281;48.770;11.440;2023-03-23T13:02:12;2.40;;;1.93;;
78072;SDS011;67281;48.770;11.440;2023-03-23T13:04:51;2.20;;;1.93;;
78072;SDS011;67281;48.770;11.440;2023-03-23T13:07:28;3.70;;;2.20;;
78072;SDS011;67281;48.770;11.440;2023-03-23T13:10:08;2.07;;;1.97;;
78072;SDS011;67281;48.770;11.440;2023-03-23T13:12:46;3.40;;;2.20;;
78072;SDS011;67281;48.770;11.440;2023-03-23T13:15:20;3.53;;;1.93;;
78072;SDS011;67281;48.770;11.440;2023-03-23T13:17:52;5.03;;;2.30;;
78072;SDS011;67281;48.770;11.440;2023-03-23T13:20:34;3.43;;;2.07;;
78072;SDS011;67281;48.770;11.440;2023-03-23T13:23:08;4.40;;;2.40;;
78072;SDS011;67281;48.770;11.440;2023-03-23T13:25:46;3.57;;;2.03;;
78072;SDS011;67281;48.770;11.440;2023-03-23T13:28:19;3.43;;;2.10;;
78072;SDS011;67281;48.770;11.440;2023-03-23T13:33:21;3.57;;;2.23;;
78072;SDS011;67281;48.770;11.440;2023-03-23T13:35:49;3.07;;;1.80;;
78072;SDS011;67281;48.770;11.440;2023-03-23T13:38:23;2.83;;;2.23;;
78072;SDS011;67281;48.770;11.440;2023-03-23T13:40:56;4.00;;;2.20;;
78072;SDS011;67281;48.770;11.440;2023-03-23T13:43:28;2.93;;;2.13;;
78072;SDS011;67281;48.770;11.440;2023-03-23T13:46:09;2.30;;;2.07;;
78072;SDS011;67281;48.770;11.440;2023-03-23T13:49:44;2.40;;;1.80;;
78072;SDS011;67281;48.770;11.440;2023-03-23T13:59:35;3.00;;;2.27;;
78072;SDS011;67281;48.770;11.440;2023-03-23T14:02:32;2.63;;;2.07;;
78072;SDS011;67281;48.770;11.440;2023-03-23T14:05:39;5.27;;;2.23;;
78072;SDS011;67281;48.770;11.440;2023-03-23T14:16:44;4.53;;;2.10;;
78072;SDS011;67281;48.770;11.440;2023-03-23T14:24:25;6.23;;;2.00;;
78072;SDS011;67281;48.770;11.440;2023-03-23T14:27:02;3.37;;;1.67;;
78072;SDS011;67281;48.770;11.440;2023-03-23T14:29:35;4.60;;;1.97;;
78072;SDS011;67281;48.770;11.440;2023-03-23T14:32:05;2.43;;;2.20;;
78072;SDS011;67281;48.770;11.440;2023-03-23T14:34:37;3.87;;;2.30;;
78072;SDS011;67281;48.770;11.440;2023-03-23T14:37:04;2.50;;;2.00;;
78072;SDS011;67281;48.770;11.440;2023-03-23T14:39:37;2.47;;;1.73;;
78072;SDS011;67281;48.770;11.440;2023-03-23T14:42:05;2.13;;;1.93;;
78072;SDS011;67281;48.770;11.440;2023-03-23T14:44:40;2.77;;;2.10;;
78072;SDS011;67281;48.770;11.440;2023-03-23T14:47:20;3.40;;;2.00;;
78072;SDS011;67281;48.770;11.440;2023-03-23T14:49:59;2.27;;;1.80;;
78072;SDS011;67281;48.770;11.440;2023-03-23T14:52:29;3.23;;;1.97;;
78072;SDS011;67281;48.770;11.440;2023-03-23T14:58:06;9.47;;;2.80;;
78072;SDS011;67281;48.770;11.440;2023-03-23T15:00:36;4.00;;;2.40;;
78072;SDS011;67281;48.770;11.440;2023-03-23T15:03:12;2.80;;;2.33;;
78072;SDS011;67281;48.770;11.440;2023-03-23T15:05:45;4.27;;;2.47;;
78072;SDS011;67281;48.770;11.440;2023-03-23T15:08:20;2.43;;;2.23;;
78072;SDS011;67281;48.770;11.440;2023-03-23T15:13:51;3.27;;;2.53;;
78072;SDS011;67281;48.770;11.440;2023-03-23T15:16:28;3.63;;;2.03;;
78072;SDS011;67281;48.770;11.440;2023-03-23T15:19:02;3.50;;;2.40;;
78072;SDS011;67281;48.770;11.440;2023-03-23T15:21:35;2.80;;;2.30;;
78072;SDS011;67281;48.770;11.440;2023-03-23T15:24:19;7.67;;;2.10;;
78072;SDS011;67281;48.770;11.440;2023-03-23T15:27:03;3.97;;;2.37;;
78072;SDS011;67281;48.770;11.440;2023-03-23T15:29:48;4.00;;;2.47;;
78072;SDS011;67281;48.770;11.440;2023-03-23T15:32:24;3.37;;;2.13;;
78072;SDS011;67281;48.770;11.440;2023-03-23T15:35:09;3.13;;;2.53;;
78072;SDS011;67281;48.770;11.440;2023-03-23T15:37:44;12.20;;;2.27;;
78072;SDS011;67281;48.770;11.440;2023-03-23T15:40:17;6.70;;;2.43;;
78072;SDS011;67281;48.770;11.440;2023-03-23T15:42:46;4.80;;;2.10;;
78072;SDS011;67281;48.770;11.440;2023-03-23T15:45:25;5.90;;;2.10;;
78072;SDS011;67281;48.770;11.440;2023-03-23T15:47:57;5.80;;;2.40;;
78072;SDS011;67281;48.770;11.440;2023-03-23T15:50:33;6.53;;;2.30;;
78072;SDS011;67281;48.770;11.440;2023-03-23T15:53:45;5.37;;;2.30;;
78072;SDS011;67281;48.770;11.440;2023-03-23T15:56:01;5.17;;;2.50;;
78072;SDS011;67281;48.770;11.440;2023-03-23T15:58:30;3.30;;;2.10;;
78072;SDS011;67281;48.770;11.440;2023-03-23T16:00:59;6.80;;;2.70;;
78072;SDS011;67281;48.770;11.440;2023-03-23T16:03:39;3.47;;;2.10;;
78072;SDS011;67281;48.770;11.440;2023-03-23T16:06:12;5.57;;;2.73;;
78072;SDS011;67281;48.770;11.440;2023-03-23T16:08:54;4.80;;;2.17;;
78072;SDS011;67281;48.770;11.440;2023-03-23T16:11:23;15.60;;;2.43;;
78072;SDS011;67281;48.770;11.440;2023-03-23T16:13:52;2.70;;;2.33;;
78072;SDS011;67281;48.770;11.440;2023-03-23T16:16:21;2.60;;;1.90;;
78072;SDS011;67281;48.770;11.440;2023-03-23T16:19:03;2.73;;;1.80;;
78072;SDS011;67281;48.770;11.440;2023-03-23T16:21:31;6.30;;;1.97;;
78072;SDS011;67281;48.770;11.440;2023-03-23T16:24:02;3.70;;;1.90;;
78072;SDS011;67281;48.770;11.440;2023-03-23T16:26:29;2.23;;;1.97;;
78072;SDS011;67281;48.770;11.440;2023-03-23T16:28:57;2.03;;;1.83;;
78072;SDS011;67281;48.770;11.440;2023-03-23T16:31:45;5.83;;;2.00;;
78072;SDS011;67281;48.770;11.440;2023-03-23T16:34:13;2.90;;;1.97;;
78072;SDS011;67281;48.770;11.440;2023-03-23T16:36:41;4.50;;;1.83;;
78072;SDS011;67281;48.770;11.440;2023-03-23T16:39:09;4.43;;;1.87;;
78072;SDS011;67281;48.770;11.440;2023-03-23T16:41:38;5.90;;;1.90;;
78072;SDS011;67281;48.770;11.440;2023-03-23T16:44:10;2.53;;;2.03;;
78072;SDS011;67281;48.770;11.440;2023-03-23T16:46:37;4.17;;;2.00;;